ASA248 KJFK-MMPR
Flight info
| Callsign | ASA248 |
|---|---|
| Flight time | 5h 16m |
| Altitude | 36000 |
| Route | RBV Q430 COPES Q75 GVE DCT LYH DCT COLZI Q52 CHOPZ DCT MGMRY DCT LCH DCT CRP DCT DEVOE/N0462F380 DCT MTY DCT OTEKA UT1 KEDMA KEDMA1B |
| Aircraft | B38M/M-SDE1FGHILORVWXY/HB1 |
Departure
| Time | 2026-05-06 10:57 |
|---|---|
| Airport | John F. Kennedy International Airport (KJFK) |
Arrival
| Time | 2026-05-06 16:14 |
|---|---|
| Airport | Puerto Vallarta International Airport (MMPR) |
| Time | Latitude | Longitude | Altitude | Speed | Heading |
|---|---|---|---|---|---|
| 2026-05-06 10:17 | 40.64880 | -73.79464 | 29 ft | 0 kts | 331° |
| 2026-05-06 10:43 | 40.64870 | -73.79457 | 29 ft | 4 kts | 330° |
| 2026-05-06 10:43 | 40.64846 | -73.79440 | 31 ft | 4 kts | 332° |
| 2026-05-06 10:44 | 40.64832 | -73.79413 | 30 ft | 2 kts | 247° |
| 2026-05-06 10:44 | 40.64837 | -73.79401 | 31 ft | 2 kts | 241° |
| 2026-05-06 10:44 | 40.64837 | -73.79400 | 31 ft | 0 kts | 241° |
| 2026-05-06 10:46 | 40.64836 | -73.79403 | 31 ft | 1 kts | 241° |
| 2026-05-06 10:47 | 40.64826 | -73.79428 | 28 ft | 5 kts | 241° |
| 2026-05-06 10:47 | 40.64805 | -73.79479 | 29 ft | 7 kts | 241° |
| 2026-05-06 10:47 | 40.64778 | -73.79542 | 27 ft | 9 kts | 241° |
| 2026-05-06 10:47 | 40.64748 | -73.79616 | 26 ft | 10 kts | 251° |
| 2026-05-06 10:48 | 40.64778 | -73.79687 | 26 ft | 10 kts | 330° |
| 2026-05-06 10:48 | 40.64849 | -73.79704 | 30 ft | 11 kts | 360° |
| 2026-05-06 10:48 | 40.64931 | -73.79703 | 26 ft | 12 kts | 1° |
| 2026-05-06 10:48 | 40.65019 | -73.79689 | 26 ft | 13 kts | 23° |
| 2026-05-06 10:49 | 40.65084 | -73.79595 | 28 ft | 15 kts | 62° |
| 2026-05-06 10:49 | 40.65135 | -73.79476 | 26 ft | 16 kts | 59° |
| 2026-05-06 10:49 | 40.65190 | -73.79347 | 29 ft | 17 kts | 60° |
| 2026-05-06 10:49 | 40.65202 | -73.79193 | 27 ft | 18 kts | 107° |
| 2026-05-06 10:50 | 40.65164 | -73.79037 | 30 ft | 19 kts | 108° |
| 2026-05-06 10:50 | 40.65135 | -73.78865 | 27 ft | 20 kts | 88° |
| 2026-05-06 10:50 | 40.65170 | -73.78693 | 28 ft | 20 kts | 60° |
| 2026-05-06 10:50 | 40.65237 | -73.78539 | 29 ft | 20 kts | 60° |
| 2026-05-06 10:51 | 40.65304 | -73.78476 | 26 ft | 12 kts | 347° |
| 2026-05-06 10:51 | 40.65369 | -73.78428 | 27 ft | 11 kts | 57° |
| 2026-05-06 10:51 | 40.65414 | -73.78337 | 28 ft | 13 kts | 57° |
| 2026-05-06 10:51 | 40.65472 | -73.78209 | 25 ft | 19 kts | 61° |
| 2026-05-06 10:52 | 40.65478 | -73.78083 | 26 ft | 13 kts | 121° |
| 2026-05-06 10:52 | 40.65427 | -73.77971 | 25 ft | 16 kts | 121° |
| 2026-05-06 10:52 | 40.65358 | -73.77820 | 22 ft | 21 kts | 121° |
| 2026-05-06 10:52 | 40.65281 | -73.77650 | 23 ft | 22 kts | 121° |
| 2026-05-06 10:53 | 40.65198 | -73.77469 | 21 ft | 23 kts | 121° |
| 2026-05-06 10:53 | 40.65116 | -73.77286 | 22 ft | 23 kts | 120° |
| 2026-05-06 10:53 | 40.65032 | -73.77101 | 27 ft | 23 kts | 121° |
| 2026-05-06 10:53 | 40.64948 | -73.76916 | 27 ft | 24 kts | 120° |
| 2026-05-06 10:54 | 40.64883 | -73.76771 | 26 ft | 12 kts | 121° |
| 2026-05-06 10:54 | 40.64880 | -73.76698 | 27 ft | 9 kts | 43° |
| 2026-05-06 10:54 | 40.64937 | -73.76653 | 24 ft | 10 kts | 30° |
| 2026-05-06 10:54 | 40.65003 | -73.76602 | 25 ft | 12 kts | 30° |
| 2026-05-06 10:55 | 40.65075 | -73.76546 | 25 ft | 11 kts | 31° |
| 2026-05-06 10:55 | 40.65105 | -73.76497 | 24 ft | 6 kts | 96° |
| 2026-05-06 10:55 | 40.65088 | -73.76449 | 28 ft | 5 kts | 118° |
| 2026-05-06 10:55 | 40.65070 | -73.76406 | 27 ft | 6 kts | 120° |
| 2026-05-06 10:56 | 40.65043 | -73.76358 | 25 ft | 7 kts | 153° |
| 2026-05-06 10:56 | 40.64999 | -73.76376 | 27 ft | 7 kts | 210° |
| 2026-05-06 10:56 | 40.64937 | -73.76424 | 26 ft | 24 kts | 210° |
| 2026-05-06 10:56 | 40.64585 | -73.76698 | 22 ft | 92 kts | 211° |
| 2026-05-06 10:57 | 40.63877 | -73.77252 | 24 ft | 146 kts | 210° |
| 2026-05-06 10:57 | 40.62905 | -73.78023 | 314 ft | 166 kts | 212° |
| 2026-05-06 10:57 | 40.61914 | -73.78819 | 1037 ft | 166 kts | 213° |
| 2026-05-06 10:57 | 40.60939 | -73.79600 | 1803 ft | 172 kts | 216° |
| 2026-05-06 10:58 | 40.59862 | -73.80469 | 2381 ft | 188 kts | 215° |
| 2026-05-06 10:58 | 40.58687 | -73.81415 | 2901 ft | 208 kts | 214° |
| 2026-05-06 10:58 | 40.57418 | -73.82437 | 3459 ft | 225 kts | 214° |
| 2026-05-06 10:58 | 40.56211 | -73.83754 | 4226 ft | 228 kts | 232° |
| 2026-05-06 10:59 | 40.55329 | -73.85530 | 5015 ft | 235 kts | 233° |
| 2026-05-06 10:59 | 40.54343 | -73.87252 | 5871 ft | 237 kts | 232° |
| 2026-05-06 10:59 | 40.53348 | -73.89019 | 6651 ft | 243 kts | 233° |
| 2026-05-06 10:59 | 40.52346 | -73.90822 | 7457 ft | 245 kts | 233° |
| 2026-05-06 11:00 | 40.51347 | -73.92636 | 8339 ft | 246 kts | 233° |
| 2026-05-06 11:00 | 40.50345 | -73.94467 | 9163 ft | 248 kts | 233° |
| 2026-05-06 11:00 | 40.49339 | -73.96312 | 10001 ft | 249 kts | 233° |
| 2026-05-06 11:00 | 40.48314 | -73.98196 | 10488 ft | 262 kts | 233° |
| 2026-05-06 11:01 | 40.47211 | -74.00223 | 10754 ft | 283 kts | 233° |
| 2026-05-06 11:01 | 40.46030 | -74.02390 | 11012 ft | 303 kts | 233° |
| 2026-05-06 11:01 | 40.44767 | -74.04707 | 11240 ft | 320 kts | 233° |
| 2026-05-06 11:01 | 40.43449 | -74.07125 | 11631 ft | 331 kts | 233° |
| 2026-05-06 11:02 | 40.42110 | -74.09585 | 12328 ft | 332 kts | 233° |
| 2026-05-06 11:02 | 40.40758 | -74.12066 | 12969 ft | 337 kts | 233° |
| 2026-05-06 11:02 | 40.39389 | -74.14577 | 13633 ft | 340 kts | 233° |
| 2026-05-06 11:02 | 40.38005 | -74.17115 | 14209 ft | 344 kts | 234° |
| 2026-05-06 11:03 | 40.36607 | -74.19677 | 14780 ft | 347 kts | 234° |
| 2026-05-06 11:03 | 40.35195 | -74.22262 | 15359 ft | 351 kts | 234° |
| 2026-05-06 11:03 | 40.33765 | -74.24876 | 15919 ft | 355 kts | 234° |
| 2026-05-06 11:03 | 40.32317 | -74.27522 | 16476 ft | 359 kts | 234° |
| 2026-05-06 11:04 | 40.30858 | -74.30187 | 17018 ft | 363 kts | 234° |
| 2026-05-06 11:04 | 40.29380 | -74.32883 | 17552 ft | 366 kts | 234° |
| 2026-05-06 11:04 | 40.27884 | -74.35609 | 18089 ft | 370 kts | 235° |
| 2026-05-06 11:04 | 40.26377 | -74.38352 | 18542 ft | 373 kts | 235° |
| 2026-05-06 11:05 | 40.24858 | -74.41117 | 19050 ft | 375 kts | 235° |
| 2026-05-06 11:05 | 40.23333 | -74.43890 | 19523 ft | 377 kts | 235° |
| 2026-05-06 11:05 | 40.21795 | -74.46686 | 20010 ft | 379 kts | 236° |
| 2026-05-06 11:05 | 40.20588 | -74.49741 | 20460 ft | 380 kts | 252° |
| 2026-05-06 11:06 | 40.20090 | -74.53145 | 20932 ft | 383 kts | 261° |
| 2026-05-06 11:06 | 40.19755 | -74.56615 | 21371 ft | 385 kts | 262° |
| 2026-05-06 11:06 | 40.19448 | -74.60089 | 21837 ft | 387 kts | 263° |
| 2026-05-06 11:06 | 40.19153 | -74.63603 | 22295 ft | 389 kts | 263° |
| 2026-05-06 11:07 | 40.18867 | -74.67129 | 22744 ft | 391 kts | 263° |
| 2026-05-06 11:07 | 40.18583 | -74.70676 | 23202 ft | 393 kts | 264° |
| 2026-05-06 11:07 | 40.18299 | -74.74236 | 23614 ft | 395 kts | 264° |
| 2026-05-06 11:07 | 40.18013 | -74.77813 | 23972 ft | 397 kts | 264° |
| 2026-05-06 11:08 | 40.17725 | -74.81417 | 24342 ft | 399 kts | 264° |
| 2026-05-06 11:08 | 40.17435 | -74.85026 | 24690 ft | 401 kts | 264° |
| 2026-05-06 11:08 | 40.17141 | -74.88662 | 25052 ft | 403 kts | 264° |
| 2026-05-06 11:08 | 40.16846 | -74.92298 | 25401 ft | 404 kts | 264° |
| 2026-05-06 11:09 | 40.16549 | -74.95959 | 25747 ft | 406 kts | 264° |
| 2026-05-06 11:09 | 40.16248 | -74.99638 | 26093 ft | 408 kts | 264° |
| 2026-05-06 11:09 | 40.15945 | -75.03333 | 26442 ft | 410 kts | 264° |
| 2026-05-06 11:09 | 40.15639 | -75.07052 | 26772 ft | 412 kts | 264° |
| 2026-05-06 11:10 | 40.15332 | -75.10771 | 27146 ft | 412 kts | 264° |
| 2026-05-06 11:10 | 40.15021 | -75.14510 | 27463 ft | 414 kts | 264° |
| 2026-05-06 11:10 | 40.14709 | -75.18257 | 27768 ft | 416 kts | 264° |
| 2026-05-06 11:10 | 40.14395 | -75.22016 | 28098 ft | 417 kts | 264° |
| 2026-05-06 11:11 | 40.14080 | -75.25770 | 28525 ft | 416 kts | 264° |
| 2026-05-06 11:11 | 40.13764 | -75.29521 | 29011 ft | 414 kts | 264° |
| 2026-05-06 11:11 | 40.13443 | -75.33253 | 29475 ft | 412 kts | 263° |
| 2026-05-06 11:11 | 40.12669 | -75.36859 | 29932 ft | 414 kts | 248° |
| 2026-05-06 11:12 | 40.11119 | -75.40036 | 30311 ft | 420 kts | 234° |
| 2026-05-06 11:12 | 40.09172 | -75.42897 | 30648 ft | 421 kts | 234° |
| 2026-05-06 11:12 | 40.07203 | -75.45727 | 31047 ft | 419 kts | 233° |
| 2026-05-06 11:12 | 40.05231 | -75.48513 | 31463 ft | 417 kts | 233° |
| 2026-05-06 11:13 | 40.03276 | -75.51244 | 31822 ft | 416 kts | 233° |
| 2026-05-06 11:13 | 40.01298 | -75.53988 | 32176 ft | 415 kts | 233° |
| 2026-05-06 11:13 | 39.99325 | -75.56719 | 32469 ft | 414 kts | 234° |
| 2026-05-06 11:13 | 39.97341 | -75.59456 | 32689 ft | 416 kts | 234° |
| 2026-05-06 11:14 | 39.95349 | -75.62203 | 33011 ft | 415 kts | 234° |
| 2026-05-06 11:14 | 39.93368 | -75.64932 | 33364 ft | 414 kts | 234° |
| 2026-05-06 11:14 | 39.91465 | -75.67710 | 33713 ft | 408 kts | 239° |
| 2026-05-06 11:14 | 39.89685 | -75.70575 | 34033 ft | 407 kts | 238° |
| 2026-05-06 11:15 | 39.87894 | -75.73421 | 34276 ft | 406 kts | 238° |
| 2026-05-06 11:15 | 39.86102 | -75.76247 | 34555 ft | 405 kts | 239° |
| 2026-05-06 11:15 | 39.84315 | -75.79061 | 34847 ft | 403 kts | 239° |
| 2026-05-06 11:15 | 39.82554 | -75.81876 | 35211 ft | 399 kts | 240° |
| 2026-05-06 11:16 | 39.80813 | -75.84658 | 35538 ft | 396 kts | 240° |
| 2026-05-06 11:16 | 39.79073 | -75.87433 | 35781 ft | 395 kts | 240° |
| 2026-05-06 11:16 | 39.77337 | -75.90198 | 35904 ft | 395 kts | 240° |
| 2026-05-06 11:17 | 39.73874 | -75.95705 | 35897 ft | 392 kts | 240° |
| 2026-05-06 11:17 | 39.70417 | -76.01193 | 35892 ft | 392 kts | 240° |
| 2026-05-06 11:18 | 39.66962 | -76.06670 | 35900 ft | 393 kts | 240° |
| 2026-05-06 11:18 | 39.64084 | -76.11224 | 35903 ft | 392 kts | 240° |
| 2026-05-06 11:19 | 39.60615 | -76.16700 | 35928 ft | 393 kts | 240° |
| 2026-05-06 11:19 | 39.57119 | -76.22085 | 35896 ft | 389 kts | 240° |
| 2026-05-06 11:20 | 39.53043 | -76.28363 | 35895 ft | 389 kts | 240° |
| 2026-05-06 11:20 | 39.50145 | -76.32821 | 35889 ft | 390 kts | 240° |
| 2026-05-06 11:21 | 39.46637 | -76.38170 | 35894 ft | 393 kts | 237° |
| 2026-05-06 11:21 | 39.42740 | -76.43205 | 35871 ft | 398 kts | 236° |
| 2026-05-06 11:22 | 39.38828 | -76.48319 | 35891 ft | 399 kts | 236° |
| 2026-05-06 11:22 | 39.34944 | -76.53410 | 35939 ft | 396 kts | 237° |
| 2026-05-06 11:23 | 39.31100 | -76.58442 | 35927 ft | 393 kts | 237° |
| 2026-05-06 11:23 | 39.27256 | -76.63466 | 35888 ft | 394 kts | 237° |
| 2026-05-06 11:24 | 39.23400 | -76.68498 | 35874 ft | 396 kts | 236° |
| 2026-05-06 11:24 | 39.19517 | -76.73555 | 35888 ft | 397 kts | 236° |
| 2026-05-06 11:25 | 39.15656 | -76.78577 | 35925 ft | 397 kts | 236° |
| 2026-05-06 11:25 | 39.11743 | -76.83657 | 35924 ft | 397 kts | 236° |
| 2026-05-06 11:26 | 39.07879 | -76.88665 | 35949 ft | 395 kts | 237° |
| 2026-05-06 11:26 | 39.04012 | -76.93669 | 35913 ft | 391 kts | 237° |
| 2026-05-06 11:27 | 39.00164 | -76.98641 | 35912 ft | 393 kts | 237° |
| 2026-05-06 11:27 | 38.96300 | -77.03615 | 35917 ft | 393 kts | 237° |
| 2026-05-06 11:28 | 38.92466 | -77.08545 | 35908 ft | 393 kts | 237° |
| 2026-05-06 11:28 | 38.88599 | -77.13510 | 35904 ft | 393 kts | 237° |
| 2026-05-06 11:29 | 38.84731 | -77.18468 | 35887 ft | 394 kts | 236° |
| 2026-05-06 11:29 | 38.80837 | -77.23452 | 35907 ft | 396 kts | 236° |
| 2026-05-06 11:30 | 38.76958 | -77.28407 | 35887 ft | 392 kts | 236° |
| 2026-05-06 11:30 | 38.73062 | -77.33316 | 35885 ft | 397 kts | 233° |
| 2026-05-06 11:31 | 38.68950 | -77.38030 | 35916 ft | 397 kts | 234° |
| 2026-05-06 11:31 | 38.64859 | -77.42758 | 35894 ft | 398 kts | 234° |
| 2026-05-06 11:32 | 38.60732 | -77.47526 | 35924 ft | 400 kts | 234° |
| 2026-05-06 11:32 | 38.56601 | -77.52293 | 35923 ft | 400 kts | 234° |
| 2026-05-06 11:33 | 38.52476 | -77.57045 | 35921 ft | 400 kts | 234° |
| 2026-05-06 11:33 | 38.48349 | -77.61791 | 35933 ft | 398 kts | 234° |
| 2026-05-06 11:34 | 38.44244 | -77.66506 | 35910 ft | 398 kts | 234° |
| 2026-05-06 11:34 | 38.40105 | -77.71250 | 35912 ft | 400 kts | 234° |
| 2026-05-06 11:35 | 38.35965 | -77.75989 | 35921 ft | 400 kts | 234° |
| 2026-05-06 11:35 | 38.31826 | -77.80720 | 35917 ft | 400 kts | 234° |
| 2026-05-06 11:36 | 38.27690 | -77.85439 | 35921 ft | 400 kts | 234° |
| 2026-05-06 11:36 | 38.23538 | -77.90169 | 35916 ft | 402 kts | 234° |
| 2026-05-06 11:37 | 38.19350 | -77.94931 | 35929 ft | 405 kts | 234° |
| 2026-05-06 11:37 | 38.15168 | -77.99680 | 35934 ft | 400 kts | 234° |
| 2026-05-06 11:38 | 38.11022 | -78.04380 | 35907 ft | 400 kts | 233° |
| 2026-05-06 11:38 | 38.06868 | -78.09083 | 35914 ft | 400 kts | 233° |
| 2026-05-06 11:39 | 38.02708 | -78.13786 | 35904 ft | 402 kts | 233° |
| 2026-05-06 11:39 | 37.98932 | -78.18857 | 35932 ft | 394 kts | 239° |
| 2026-05-06 11:40 | 37.95318 | -78.24065 | 35920 ft | 393 kts | 240° |
| 2026-05-06 11:40 | 37.91714 | -78.29274 | 35911 ft | 393 kts | 240° |
| 2026-05-06 11:41 | 37.88109 | -78.34480 | 35912 ft | 393 kts | 240° |
| 2026-05-06 11:41 | 37.84500 | -78.39683 | 35911 ft | 394 kts | 240° |
| 2026-05-06 11:42 | 37.80883 | -78.44890 | 35916 ft | 393 kts | 240° |
| 2026-05-06 11:42 | 37.77266 | -78.50086 | 35918 ft | 394 kts | 240° |
| 2026-05-06 11:43 | 37.73675 | -78.55239 | 35917 ft | 394 kts | 240° |
| 2026-05-06 11:43 | 37.70032 | -78.60458 | 35922 ft | 393 kts | 240° |
| 2026-05-06 11:44 | 37.64624 | -78.68190 | 35923 ft | 393 kts | 239° |
| 2026-05-06 11:44 | 37.61005 | -78.73352 | 35919 ft | 392 kts | 240° |
| 2026-05-06 11:45 | 37.57395 | -78.78495 | 35926 ft | 392 kts | 240° |
| 2026-05-06 11:45 | 37.53775 | -78.83644 | 35927 ft | 392 kts | 240° |
| 2026-05-06 11:46 | 37.50155 | -78.88783 | 35932 ft | 392 kts | 240° |
| 2026-05-06 11:46 | 37.46532 | -78.93920 | 35930 ft | 392 kts | 240° |
| 2026-05-06 11:47 | 37.42913 | -78.99044 | 35914 ft | 393 kts | 240° |
| 2026-05-06 11:47 | 37.39265 | -79.04199 | 35937 ft | 395 kts | 240° |
| 2026-05-06 11:48 | 37.35618 | -79.09344 | 35950 ft | 392 kts | 239° |
| 2026-05-06 11:48 | 37.31992 | -79.14453 | 35950 ft | 392 kts | 239° |
| 2026-05-06 11:49 | 37.28363 | -79.19560 | 35950 ft | 392 kts | 239° |
| 2026-05-06 11:49 | 37.24651 | -79.24578 | 35939 ft | 396 kts | 237° |
| 2026-05-06 11:50 | 37.20772 | -79.29434 | 35909 ft | 397 kts | 237° |
| 2026-05-06 11:50 | 37.16865 | -79.34359 | 35926 ft | 399 kts | 237° |
| 2026-05-06 11:51 | 37.12960 | -79.39279 | 35932 ft | 398 kts | 237° |
| 2026-05-06 11:51 | 37.09060 | -79.44185 | 35926 ft | 397 kts | 237° |
| 2026-05-06 11:52 | 37.05190 | -79.49048 | 35926 ft | 392 kts | 237° |
| 2026-05-06 11:52 | 37.01336 | -79.53883 | 35902 ft | 393 kts | 237° |
| 2026-05-06 11:53 | 36.97449 | -79.58750 | 35921 ft | 393 kts | 237° |
| 2026-05-06 11:53 | 36.93613 | -79.63548 | 35930 ft | 392 kts | 237° |
| 2026-05-06 11:54 | 36.89756 | -79.68364 | 35927 ft | 392 kts | 237° |
| 2026-05-06 11:54 | 36.85873 | -79.73205 | 35943 ft | 392 kts | 237° |
| 2026-05-06 11:55 | 36.82033 | -79.77986 | 35953 ft | 392 kts | 237° |
| 2026-05-06 11:55 | 36.78177 | -79.82779 | 35953 ft | 391 kts | 237° |
| 2026-05-06 11:56 | 36.74323 | -79.87562 | 35988 ft | 391 kts | 237° |
| 2026-05-06 11:56 | 36.70474 | -79.92332 | 36016 ft | 391 kts | 237° |
| 2026-05-06 11:57 | 36.66618 | -79.97103 | 36013 ft | 390 kts | 237° |
| 2026-05-06 11:57 | 36.62762 | -80.01868 | 36017 ft | 391 kts | 237° |
| 2026-05-06 11:58 | 36.58902 | -80.06631 | 36018 ft | 391 kts | 237° |
| 2026-05-06 11:58 | 36.55041 | -80.11387 | 35961 ft | 393 kts | 237° |
| 2026-05-06 11:59 | 36.51141 | -80.16184 | 35953 ft | 394 kts | 237° |
| 2026-05-06 11:59 | 36.47264 | -80.20945 | 35961 ft | 390 kts | 237° |
| 2026-05-06 12:00 | 36.43402 | -80.25682 | 35975 ft | 390 kts | 237° |
| 2026-05-06 12:00 | 36.39540 | -80.30411 | 35999 ft | 390 kts | 237° |
| 2026-05-06 12:01 | 36.35680 | -80.35131 | 35973 ft | 390 kts | 237° |
| 2026-05-06 12:01 | 36.31787 | -80.39885 | 35987 ft | 397 kts | 236° |
| 2026-05-06 12:02 | 36.27848 | -80.44689 | 35989 ft | 396 kts | 236° |
| 2026-05-06 12:02 | 36.23917 | -80.49476 | 35983 ft | 397 kts | 236° |
| 2026-05-06 12:03 | 36.19575 | -80.53875 | 35958 ft | 407 kts | 230° |
| 2026-05-06 12:03 | 36.15847 | -80.57413 | 35946 ft | 405 kts | 230° |
| 2026-05-06 12:04 | 36.11371 | -80.61641 | 35898 ft | 407 kts | 229° |
| 2026-05-06 12:04 | 36.06829 | -80.65923 | 35940 ft | 415 kts | 229° |
| 2026-05-06 12:05 | 36.02224 | -80.70256 | 35945 ft | 416 kts | 229° |
| 2026-05-06 12:05 | 35.97625 | -80.74578 | 35953 ft | 416 kts | 229° |
| 2026-05-06 12:06 | 35.93020 | -80.78899 | 35951 ft | 416 kts | 229° |
| 2026-05-06 12:06 | 35.88409 | -80.83219 | 35935 ft | 417 kts | 229° |
| 2026-05-06 12:07 | 35.83761 | -80.87567 | 36035 ft | 421 kts | 229° |
| 2026-05-06 12:07 | 35.79103 | -80.91918 | 36028 ft | 420 kts | 228° |
| 2026-05-06 12:08 | 35.74458 | -80.96251 | 36032 ft | 418 kts | 228° |
| 2026-05-06 12:08 | 35.69823 | -81.00568 | 36034 ft | 418 kts | 228° |
| 2026-05-06 12:09 | 35.65182 | -81.04883 | 36028 ft | 418 kts | 228° |
| 2026-05-06 12:09 | 35.60545 | -81.09189 | 36022 ft | 418 kts | 228° |
| 2026-05-06 12:10 | 35.55902 | -81.13494 | 36037 ft | 418 kts | 228° |
| 2026-05-06 12:10 | 35.51255 | -81.17796 | 36037 ft | 418 kts | 228° |
| 2026-05-06 12:11 | 35.46608 | -81.22092 | 36034 ft | 418 kts | 228° |
| 2026-05-06 12:11 | 35.41951 | -81.26389 | 36012 ft | 419 kts | 228° |
| 2026-05-06 12:12 | 35.37274 | -81.30700 | 36025 ft | 421 kts | 227° |
| 2026-05-06 12:12 | 35.32603 | -81.34999 | 36017 ft | 420 kts | 227° |
| 2026-05-06 12:13 | 35.27932 | -81.39292 | 36016 ft | 420 kts | 227° |
| 2026-05-06 12:13 | 35.23253 | -81.43585 | 36010 ft | 420 kts | 227° |
| 2026-05-06 12:14 | 35.18583 | -81.47864 | 35980 ft | 421 kts | 227° |
| 2026-05-06 12:14 | 35.13874 | -81.52172 | 35980 ft | 424 kts | 227° |
| 2026-05-06 12:15 | 35.09184 | -81.56457 | 35979 ft | 423 kts | 227° |
| 2026-05-06 12:15 | 35.04548 | -81.60849 | 35985 ft | 412 kts | 237° |
| 2026-05-06 12:16 | 35.02838 | -81.63539 | 36031 ft | 397 kts | 244° |
| 2026-05-06 12:16 | 35.01230 | -81.66299 | 35975 ft | 401 kts | 243° |
| 2026-05-06 12:16 | 34.98076 | -81.71849 | 36020 ft | 397 kts | 244° |
| 2026-05-06 12:17 | 34.94970 | -81.77416 | 36023 ft | 399 kts | 244° |
| 2026-05-06 12:17 | 34.91845 | -81.83037 | 36033 ft | 401 kts | 244° |
| 2026-05-06 12:18 | 34.88721 | -81.88649 | 36038 ft | 400 kts | 244° |
| 2026-05-06 12:18 | 34.85597 | -81.94253 | 36045 ft | 400 kts | 244° |
| 2026-05-06 12:19 | 34.82465 | -81.99862 | 36044 ft | 400 kts | 244° |
| 2026-05-06 12:19 | 34.79333 | -82.05464 | 36024 ft | 401 kts | 244° |
| 2026-05-06 12:20 | 34.76193 | -82.11068 | 36017 ft | 401 kts | 244° |
| 2026-05-06 12:20 | 34.73060 | -82.16655 | 36000 ft | 401 kts | 244° |
| 2026-05-06 12:21 | 34.69886 | -82.22304 | 36024 ft | 407 kts | 244° |
| 2026-05-06 12:21 | 34.66698 | -82.27967 | 36032 ft | 406 kts | 244° |
| 2026-05-06 12:22 | 34.63509 | -82.33626 | 36027 ft | 406 kts | 244° |
| 2026-05-06 12:22 | 34.60318 | -82.39277 | 36029 ft | 406 kts | 244° |
| 2026-05-06 12:23 | 34.57125 | -82.44923 | 36021 ft | 406 kts | 243° |
| 2026-05-06 12:23 | 34.53926 | -82.50573 | 36029 ft | 406 kts | 243° |
| 2026-05-06 12:24 | 34.50720 | -82.56224 | 35994 ft | 406 kts | 243° |
| 2026-05-06 12:24 | 34.47517 | -82.61862 | 36038 ft | 407 kts | 243° |
| 2026-05-06 12:25 | 34.44313 | -82.67492 | 36004 ft | 406 kts | 243° |
| 2026-05-06 12:25 | 34.41101 | -82.73129 | 36015 ft | 406 kts | 243° |
| 2026-05-06 12:26 | 34.37886 | -82.78762 | 36017 ft | 406 kts | 242° |
| 2026-05-06 12:26 | 34.34670 | -82.84383 | 36029 ft | 407 kts | 242° |
| 2026-05-06 12:27 | 34.31443 | -82.90005 | 36037 ft | 407 kts | 242° |
| 2026-05-06 12:27 | 34.28218 | -82.95616 | 36034 ft | 407 kts | 242° |
| 2026-05-06 12:28 | 34.24990 | -83.01225 | 36033 ft | 406 kts | 242° |
| 2026-05-06 12:28 | 34.21764 | -83.06819 | 36029 ft | 405 kts | 242° |
| 2026-05-06 12:29 | 34.18539 | -83.12405 | 36025 ft | 406 kts | 242° |
| 2026-05-06 12:29 | 34.15315 | -83.17979 | 36010 ft | 406 kts | 242° |
| 2026-05-06 12:30 | 34.12071 | -83.23581 | 36034 ft | 407 kts | 242° |
| 2026-05-06 12:30 | 34.08826 | -83.29174 | 36037 ft | 407 kts | 242° |
| 2026-05-06 12:31 | 34.05575 | -83.34769 | 36043 ft | 407 kts | 242° |
| 2026-05-06 12:31 | 34.02325 | -83.40356 | 36021 ft | 407 kts | 242° |
| 2026-05-06 12:32 | 33.99066 | -83.45948 | 36036 ft | 408 kts | 242° |
| 2026-05-06 12:32 | 33.95825 | -83.51500 | 36059 ft | 408 kts | 242° |
| 2026-05-06 12:33 | 33.92559 | -83.57088 | 36063 ft | 408 kts | 241° |
| 2026-05-06 12:33 | 33.89262 | -83.62720 | 36060 ft | 409 kts | 241° |
| 2026-05-06 12:34 | 33.86014 | -83.68253 | 36050 ft | 409 kts | 241° |
| 2026-05-06 12:34 | 33.82681 | -83.73802 | 36048 ft | 409 kts | 241° |
| 2026-05-06 12:35 | 33.79348 | -83.79351 | 35998 ft | 409 kts | 241° |
| 2026-05-06 12:35 | 33.76024 | -83.84880 | 36041 ft | 407 kts | 242° |
| 2026-05-06 12:36 | 33.72711 | -83.90381 | 36045 ft | 407 kts | 242° |
| 2026-05-06 12:36 | 33.69396 | -83.95876 | 36042 ft | 405 kts | 242° |
| 2026-05-06 12:37 | 33.66096 | -84.01341 | 36043 ft | 405 kts | 242° |
| 2026-05-06 12:37 | 33.62785 | -84.06814 | 36038 ft | 405 kts | 242° |
| 2026-05-06 12:38 | 33.59474 | -84.12279 | 36028 ft | 405 kts | 242° |
| 2026-05-06 12:38 | 33.56165 | -84.17733 | 36056 ft | 405 kts | 242° |
| 2026-05-06 12:39 | 33.52852 | -84.23187 | 36059 ft | 403 kts | 242° |
| 2026-05-06 12:39 | 33.49559 | -84.28596 | 36085 ft | 402 kts | 242° |
| 2026-05-06 12:40 | 33.46264 | -84.34004 | 36086 ft | 400 kts | 242° |
| 2026-05-06 12:40 | 33.42985 | -84.39376 | 36044 ft | 401 kts | 242° |
| 2026-05-06 12:41 | 33.39693 | -84.44762 | 36049 ft | 401 kts | 242° |
| 2026-05-06 12:41 | 33.36397 | -84.50147 | 36054 ft | 401 kts | 242° |
| 2026-05-06 12:42 | 33.33102 | -84.55522 | 36058 ft | 401 kts | 242° |
| 2026-05-06 12:42 | 33.29824 | -84.60862 | 36053 ft | 401 kts | 242° |
| 2026-05-06 12:43 | 33.26528 | -84.66223 | 36064 ft | 401 kts | 242° |
| 2026-05-06 12:43 | 33.23207 | -84.71616 | 36065 ft | 400 kts | 242° |
| 2026-05-06 12:44 | 33.19930 | -84.76931 | 36063 ft | 400 kts | 242° |
| 2026-05-06 12:44 | 33.16630 | -84.82276 | 36058 ft | 400 kts | 242° |
| 2026-05-06 12:45 | 33.13333 | -84.87608 | 36046 ft | 400 kts | 242° |
| 2026-05-06 12:46 | 33.08367 | -84.95625 | 36032 ft | 400 kts | 242° |
| 2026-05-06 12:46 | 33.05060 | -85.00954 | 35992 ft | 400 kts | 242° |
| 2026-05-06 12:47 | 33.01750 | -85.06279 | 36070 ft | 400 kts | 242° |
| 2026-05-06 12:47 | 32.98449 | -85.11583 | 36076 ft | 399 kts | 242° |
| 2026-05-06 12:48 | 32.95139 | -85.16894 | 36072 ft | 399 kts | 242° |
| 2026-05-06 12:48 | 32.91838 | -85.22182 | 36063 ft | 399 kts | 242° |
| 2026-05-06 12:49 | 32.89084 | -85.26589 | 36037 ft | 399 kts | 242° |
| 2026-05-06 12:49 | 32.85770 | -85.31884 | 36050 ft | 399 kts | 242° |
| 2026-05-06 12:50 | 32.82459 | -85.37168 | 36063 ft | 399 kts | 242° |
| 2026-05-06 12:50 | 32.79143 | -85.42453 | 36050 ft | 398 kts | 242° |
| 2026-05-06 12:51 | 32.75834 | -85.47717 | 36063 ft | 397 kts | 242° |
| 2026-05-06 12:51 | 32.72530 | -85.52968 | 36069 ft | 397 kts | 242° |
| 2026-05-06 12:52 | 32.69235 | -85.58197 | 36071 ft | 397 kts | 242° |
| 2026-05-06 12:52 | 32.65926 | -85.63439 | 36065 ft | 397 kts | 242° |
| 2026-05-06 12:53 | 32.62614 | -85.68680 | 36066 ft | 397 kts | 242° |
| 2026-05-06 12:53 | 32.59302 | -85.73912 | 36057 ft | 397 kts | 242° |
| 2026-05-06 12:54 | 32.55983 | -85.79150 | 36041 ft | 397 kts | 242° |
| 2026-05-06 12:54 | 32.52669 | -85.84372 | 36032 ft | 398 kts | 242° |
| 2026-05-06 12:55 | 32.49332 | -85.89624 | 36028 ft | 398 kts | 242° |
| 2026-05-06 12:55 | 32.45998 | -85.94863 | 36031 ft | 398 kts | 242° |
| 2026-05-06 12:56 | 32.42657 | -86.00105 | 36031 ft | 398 kts | 242° |
| 2026-05-06 12:56 | 32.39319 | -86.05336 | 36025 ft | 399 kts | 242° |
| 2026-05-06 12:57 | 32.36005 | -86.10523 | 36035 ft | 399 kts | 242° |
| 2026-05-06 12:57 | 32.32638 | -86.15787 | 36021 ft | 398 kts | 242° |
| 2026-05-06 12:58 | 32.29316 | -86.20972 | 36031 ft | 398 kts | 241° |
| 2026-05-06 12:58 | 32.25971 | -86.26189 | 36056 ft | 399 kts | 241° |
| 2026-05-06 12:59 | 32.22720 | -86.31457 | 36039 ft | 390 kts | 250° |
| 2026-05-06 12:59 | 32.20862 | -86.37347 | 36012 ft | 383 kts | 257° |
| 2026-05-06 13:00 | 32.19157 | -86.43298 | 36051 ft | 383 kts | 257° |
| 2026-05-06 13:00 | 32.17497 | -86.49267 | 36035 ft | 382 kts | 257° |
| 2026-05-06 13:01 | 32.15849 | -86.55235 | 36021 ft | 382 kts | 257° |
| 2026-05-06 13:01 | 32.14203 | -86.61188 | 36004 ft | 382 kts | 257° |
| 2026-05-06 13:02 | 32.12552 | -86.67149 | 35950 ft | 382 kts | 257° |
| 2026-05-06 13:02 | 32.10900 | -86.73103 | 35956 ft | 382 kts | 257° |
| 2026-05-06 13:03 | 32.09243 | -86.79061 | 35953 ft | 382 kts | 257° |
| 2026-05-06 13:03 | 32.07585 | -86.85010 | 35956 ft | 382 kts | 257° |
| 2026-05-06 13:04 | 32.05925 | -86.90955 | 35958 ft | 382 kts | 257° |
| 2026-05-06 13:04 | 32.04260 | -86.96906 | 35954 ft | 382 kts | 257° |
| 2026-05-06 13:05 | 32.02596 | -87.02843 | 35941 ft | 382 kts | 257° |
| 2026-05-06 13:05 | 32.00925 | -87.08791 | 35929 ft | 382 kts | 256° |
| 2026-05-06 13:06 | 31.99254 | -87.14725 | 35929 ft | 382 kts | 256° |
| 2026-05-06 13:06 | 31.97579 | -87.20664 | 35931 ft | 382 kts | 256° |
| 2026-05-06 13:07 | 31.95899 | -87.26608 | 35942 ft | 382 kts | 256° |
| 2026-05-06 13:07 | 31.94216 | -87.32550 | 35938 ft | 382 kts | 256° |
| 2026-05-06 13:08 | 31.92535 | -87.38476 | 35943 ft | 381 kts | 256° |
| 2026-05-06 13:08 | 31.90857 | -87.44377 | 35958 ft | 381 kts | 256° |
| 2026-05-06 13:09 | 31.89210 | -87.50155 | 35959 ft | 381 kts | 256° |
| 2026-05-06 13:09 | 31.87526 | -87.56058 | 35968 ft | 381 kts | 256° |
| 2026-05-06 13:10 | 31.85847 | -87.61927 | 35967 ft | 381 kts | 256° |
| 2026-05-06 13:10 | 31.84156 | -87.67828 | 35971 ft | 381 kts | 256° |
| 2026-05-06 13:11 | 31.82461 | -87.73729 | 35986 ft | 381 kts | 256° |
| 2026-05-06 13:11 | 31.80767 | -87.79618 | 35986 ft | 380 kts | 256° |
| 2026-05-06 13:12 | 31.79071 | -87.85498 | 35980 ft | 380 kts | 256° |
| 2026-05-06 13:12 | 31.77370 | -87.91387 | 35980 ft | 381 kts | 255° |
| 2026-05-06 13:13 | 31.75661 | -87.97292 | 35989 ft | 382 kts | 255° |
| 2026-05-06 13:13 | 31.73947 | -88.03203 | 36013 ft | 382 kts | 255° |
| 2026-05-06 13:14 | 31.72231 | -88.09107 | 36015 ft | 382 kts | 255° |
| 2026-05-06 13:14 | 31.70513 | -88.15011 | 36012 ft | 382 kts | 255° |
| 2026-05-06 13:15 | 31.68794 | -88.20905 | 36019 ft | 382 kts | 255° |
| 2026-05-06 13:15 | 31.67071 | -88.26798 | 36020 ft | 382 kts | 255° |
| 2026-05-06 13:16 | 31.65345 | -88.32691 | 36012 ft | 382 kts | 255° |
| 2026-05-06 13:16 | 31.63616 | -88.38586 | 36014 ft | 382 kts | 255° |
| 2026-05-06 13:17 | 31.61885 | -88.44474 | 36017 ft | 382 kts | 255° |
| 2026-05-06 13:17 | 31.60149 | -88.50368 | 36018 ft | 381 kts | 254° |
| 2026-05-06 13:18 | 31.58419 | -88.56230 | 36010 ft | 381 kts | 255° |
| 2026-05-06 13:18 | 31.56684 | -88.62099 | 36016 ft | 381 kts | 254° |
| 2026-05-06 13:19 | 31.54946 | -88.67963 | 36006 ft | 381 kts | 254° |
| 2026-05-06 13:19 | 31.53205 | -88.73829 | 36010 ft | 381 kts | 254° |
| 2026-05-06 13:20 | 31.51462 | -88.79689 | 35969 ft | 381 kts | 254° |
| 2026-05-06 13:20 | 31.49708 | -88.85577 | 36007 ft | 385 kts | 254° |
| 2026-05-06 13:21 | 31.47946 | -88.91481 | 36003 ft | 383 kts | 254° |
| 2026-05-06 13:21 | 31.46195 | -88.97333 | 35996 ft | 383 kts | 254° |
| 2026-05-06 13:22 | 31.44419 | -89.03261 | 35993 ft | 383 kts | 254° |
| 2026-05-06 13:22 | 31.42666 | -89.09102 | 36009 ft | 383 kts | 254° |
| 2026-05-06 13:23 | 31.40895 | -89.14987 | 36015 ft | 383 kts | 254° |
| 2026-05-06 13:23 | 31.39111 | -89.20907 | 36014 ft | 383 kts | 254° |
| 2026-05-06 13:24 | 31.37348 | -89.26748 | 36023 ft | 382 kts | 253° |
| 2026-05-06 13:24 | 31.35575 | -89.32608 | 36020 ft | 382 kts | 253° |
| 2026-05-06 13:25 | 31.33803 | -89.38456 | 36015 ft | 382 kts | 253° |
| 2026-05-06 13:25 | 31.32025 | -89.44310 | 36010 ft | 382 kts | 253° |
| 2026-05-06 13:26 | 31.30245 | -89.50162 | 36007 ft | 382 kts | 253° |
| 2026-05-06 13:26 | 31.28462 | -89.56012 | 36009 ft | 382 kts | 253° |
| 2026-05-06 13:27 | 31.26675 | -89.61863 | 36002 ft | 382 kts | 253° |
| 2026-05-06 13:27 | 31.24889 | -89.67702 | 35996 ft | 382 kts | 253° |
| 2026-05-06 13:28 | 31.23096 | -89.73551 | 35983 ft | 384 kts | 253° |
| 2026-05-06 13:28 | 31.21288 | -89.79441 | 35992 ft | 385 kts | 253° |
| 2026-05-06 13:29 | 31.19477 | -89.85326 | 35985 ft | 385 kts | 253° |
| 2026-05-06 13:29 | 31.17667 | -89.91200 | 35990 ft | 385 kts | 253° |
| 2026-05-06 13:30 | 31.15851 | -89.97082 | 35992 ft | 385 kts | 253° |
| 2026-05-06 13:30 | 31.14036 | -90.02947 | 35999 ft | 383 kts | 253° |
| 2026-05-06 13:31 | 31.12226 | -90.08788 | 35991 ft | 382 kts | 253° |
| 2026-05-06 13:31 | 31.10415 | -90.14623 | 35992 ft | 383 kts | 253° |
| 2026-05-06 13:32 | 31.08604 | -90.20444 | 35981 ft | 382 kts | 253° |
| 2026-05-06 13:32 | 31.06788 | -90.26270 | 35986 ft | 382 kts | 252° |
| 2026-05-06 13:33 | 31.04968 | -90.32101 | 35980 ft | 382 kts | 252° |
| 2026-05-06 13:33 | 31.03146 | -90.37926 | 35983 ft | 383 kts | 252° |
| 2026-05-06 13:34 | 31.01632 | -90.42760 | 35978 ft | 381 kts | 252° |
| 2026-05-06 13:34 | 30.99813 | -90.48555 | 35980 ft | 381 kts | 252° |
| 2026-05-06 13:35 | 30.97989 | -90.54358 | 35981 ft | 381 kts | 252° |
| 2026-05-06 13:35 | 30.95867 | -90.61097 | 35973 ft | 381 kts | 252° |
| 2026-05-06 13:36 | 30.94031 | -90.66914 | 35973 ft | 384 kts | 252° |
| 2026-05-06 13:36 | 30.92483 | -90.71811 | 35971 ft | 384 kts | 252° |
| 2026-05-06 13:37 | 30.90637 | -90.77637 | 35969 ft | 384 kts | 252° |
| 2026-05-06 13:37 | 30.88791 | -90.83459 | 35969 ft | 383 kts | 252° |
| 2026-05-06 13:38 | 30.86943 | -90.89274 | 35971 ft | 383 kts | 252° |
| 2026-05-06 13:38 | 30.85093 | -90.95087 | 35963 ft | 383 kts | 252° |
| 2026-05-06 13:39 | 30.83252 | -91.00857 | 35967 ft | 383 kts | 252° |
| 2026-05-06 13:39 | 30.81396 | -91.06669 | 35962 ft | 383 kts | 252° |
| 2026-05-06 13:40 | 30.79538 | -91.12474 | 35964 ft | 383 kts | 252° |
| 2026-05-06 13:40 | 30.77678 | -91.18275 | 35973 ft | 382 kts | 251° |
| 2026-05-06 13:41 | 30.75822 | -91.24051 | 35960 ft | 381 kts | 251° |
| 2026-05-06 13:41 | 30.73956 | -91.29852 | 35966 ft | 381 kts | 251° |
| 2026-05-06 13:42 | 30.72095 | -91.35625 | 35969 ft | 381 kts | 251° |
| 2026-05-06 13:42 | 30.70243 | -91.41360 | 35971 ft | 381 kts | 251° |
| 2026-05-06 13:43 | 30.68380 | -91.47121 | 35971 ft | 381 kts | 251° |
| 2026-05-06 13:43 | 30.66511 | -91.52887 | 35974 ft | 381 kts | 251° |
| 2026-05-06 13:44 | 30.64647 | -91.58630 | 35974 ft | 380 kts | 251° |
| 2026-05-06 13:44 | 30.62781 | -91.64369 | 35961 ft | 380 kts | 251° |
| 2026-05-06 13:45 | 30.60912 | -91.70107 | 35961 ft | 380 kts | 251° |
| 2026-05-06 13:45 | 30.58102 | -91.78715 | 35948 ft | 380 kts | 251° |
| 2026-05-06 13:46 | 30.56230 | -91.84440 | 35957 ft | 380 kts | 251° |
| 2026-05-06 13:46 | 30.54351 | -91.90171 | 35952 ft | 380 kts | 251° |
| 2026-05-06 13:47 | 30.52472 | -91.95897 | 35958 ft | 380 kts | 251° |
| 2026-05-06 13:47 | 30.50592 | -92.01614 | 35962 ft | 379 kts | 251° |
| 2026-05-06 13:48 | 30.48709 | -92.07331 | 35965 ft | 380 kts | 251° |
| 2026-05-06 13:48 | 30.46827 | -92.13035 | 35961 ft | 380 kts | 251° |
| 2026-05-06 13:49 | 30.44937 | -92.18752 | 35958 ft | 380 kts | 251° |
| 2026-05-06 13:49 | 30.43059 | -92.24423 | 35958 ft | 380 kts | 251° |
| 2026-05-06 13:50 | 30.41167 | -92.30130 | 35965 ft | 379 kts | 250° |
| 2026-05-06 13:50 | 30.39282 | -92.35805 | 35949 ft | 377 kts | 250° |
| 2026-05-06 13:51 | 30.37395 | -92.41475 | 35913 ft | 378 kts | 250° |
| 2026-05-06 13:51 | 30.35492 | -92.47187 | 35939 ft | 382 kts | 250° |
| 2026-05-06 13:52 | 30.33579 | -92.52919 | 35946 ft | 382 kts | 250° |
| 2026-05-06 13:52 | 30.31662 | -92.58654 | 35950 ft | 382 kts | 250° |
| 2026-05-06 13:53 | 30.29746 | -92.64376 | 35947 ft | 382 kts | 250° |
| 2026-05-06 13:53 | 30.27825 | -92.70106 | 35948 ft | 381 kts | 250° |
| 2026-05-06 13:54 | 30.25909 | -92.75811 | 35949 ft | 381 kts | 250° |
| 2026-05-06 13:54 | 30.23988 | -92.81521 | 35962 ft | 381 kts | 250° |
| 2026-05-06 13:55 | 30.22065 | -92.87227 | 35939 ft | 381 kts | 250° |
| 2026-05-06 13:55 | 30.20141 | -92.92926 | 35937 ft | 381 kts | 250° |
| 2026-05-06 13:56 | 30.18213 | -92.98627 | 35933 ft | 381 kts | 250° |
| 2026-05-06 13:56 | 30.16283 | -93.04327 | 35929 ft | 381 kts | 250° |
| 2026-05-06 13:57 | 30.14360 | -93.10030 | 35920 ft | 380 kts | 252° |
| 2026-05-06 13:57 | 30.13342 | -93.12846 | 35906 ft | 382 kts | 241° |
| 2026-05-06 13:57 | 30.11894 | -93.15361 | 35939 ft | 382 kts | 242° |
| 2026-05-06 13:58 | 30.09224 | -93.20668 | 35938 ft | 383 kts | 243° |
| 2026-05-06 13:58 | 30.06592 | -93.26004 | 35913 ft | 383 kts | 243° |
| 2026-05-06 13:59 | 30.03952 | -93.31379 | 35945 ft | 386 kts | 243° |
| 2026-05-06 13:59 | 30.01309 | -93.36757 | 35957 ft | 385 kts | 243° |
| 2026-05-06 14:00 | 29.98668 | -93.42124 | 35954 ft | 385 kts | 243° |
| 2026-05-06 14:00 | 29.96024 | -93.47488 | 35950 ft | 385 kts | 243° |
| 2026-05-06 14:01 | 29.93377 | -93.52854 | 35949 ft | 385 kts | 243° |
| 2026-05-06 14:01 | 29.90724 | -93.58222 | 35942 ft | 385 kts | 243° |
| 2026-05-06 14:02 | 29.88073 | -93.63580 | 35948 ft | 385 kts | 243° |
| 2026-05-06 14:02 | 29.85418 | -93.68939 | 35932 ft | 385 kts | 243° |
| 2026-05-06 14:03 | 29.82760 | -93.74295 | 35941 ft | 385 kts | 243° |
| 2026-05-06 14:03 | 29.80101 | -93.79648 | 35936 ft | 385 kts | 243° |
| 2026-05-06 14:04 | 29.77439 | -93.84999 | 35926 ft | 385 kts | 243° |
| 2026-05-06 14:04 | 29.74767 | -93.90363 | 35926 ft | 388 kts | 243° |
| 2026-05-06 14:05 | 29.72083 | -93.95744 | 35925 ft | 388 kts | 242° |
| 2026-05-06 14:05 | 29.69395 | -94.01125 | 35924 ft | 388 kts | 242° |
| 2026-05-06 14:06 | 29.66707 | -94.06501 | 35919 ft | 388 kts | 242° |
| 2026-05-06 14:06 | 29.64012 | -94.11881 | 35920 ft | 388 kts | 242° |
| 2026-05-06 14:07 | 29.61320 | -94.17249 | 35922 ft | 388 kts | 242° |
| 2026-05-06 14:07 | 29.58625 | -94.22616 | 35926 ft | 387 kts | 242° |
| 2026-05-06 14:08 | 29.55933 | -94.27969 | 35919 ft | 387 kts | 242° |
| 2026-05-06 14:08 | 29.53241 | -94.33316 | 35917 ft | 387 kts | 242° |
| 2026-05-06 14:09 | 29.50547 | -94.38659 | 35925 ft | 387 kts | 242° |
| 2026-05-06 14:09 | 29.47870 | -94.43963 | 35913 ft | 387 kts | 242° |
| 2026-05-06 14:10 | 29.45170 | -94.49302 | 35894 ft | 388 kts | 242° |
| 2026-05-06 14:10 | 29.42440 | -94.54696 | 35915 ft | 391 kts | 242° |
| 2026-05-06 14:11 | 29.39708 | -94.60088 | 35922 ft | 390 kts | 242° |
| 2026-05-06 14:11 | 29.36984 | -94.65455 | 35919 ft | 389 kts | 242° |
| 2026-05-06 14:12 | 29.34260 | -94.70815 | 35914 ft | 389 kts | 242° |
| 2026-05-06 14:12 | 29.31530 | -94.76178 | 35915 ft | 390 kts | 242° |
| 2026-05-06 14:13 | 29.28798 | -94.81540 | 35915 ft | 389 kts | 242° |
| 2026-05-06 14:13 | 29.26065 | -94.86897 | 35920 ft | 390 kts | 242° |
| 2026-05-06 14:14 | 29.23335 | -94.92240 | 35913 ft | 389 kts | 242° |
| 2026-05-06 14:14 | 29.20596 | -94.97595 | 35919 ft | 389 kts | 242° |
| 2026-05-06 14:15 | 29.17864 | -95.02930 | 35915 ft | 389 kts | 242° |
| 2026-05-06 14:15 | 29.15126 | -95.08267 | 35893 ft | 389 kts | 241° |
| 2026-05-06 14:16 | 29.12377 | -95.13621 | 35929 ft | 392 kts | 241° |
| 2026-05-06 14:16 | 29.09616 | -95.18989 | 35891 ft | 391 kts | 241° |
| 2026-05-06 14:17 | 29.06851 | -95.24359 | 35899 ft | 392 kts | 241° |
| 2026-05-06 14:17 | 29.04089 | -95.29716 | 35899 ft | 392 kts | 241° |
| 2026-05-06 14:18 | 29.01320 | -95.35080 | 35898 ft | 392 kts | 241° |
| 2026-05-06 14:18 | 28.98552 | -95.40436 | 35900 ft | 392 kts | 241° |
| 2026-05-06 14:19 | 28.95781 | -95.45788 | 35898 ft | 392 kts | 241° |
| 2026-05-06 14:19 | 28.93004 | -95.51146 | 35902 ft | 392 kts | 241° |
| 2026-05-06 14:20 | 28.90231 | -95.56489 | 35899 ft | 392 kts | 241° |
| 2026-05-06 14:20 | 28.87449 | -95.61843 | 35896 ft | 392 kts | 241° |
| 2026-05-06 14:21 | 28.85143 | -95.66276 | 35872 ft | 392 kts | 241° |
| 2026-05-06 14:21 | 28.82357 | -95.71625 | 35874 ft | 393 kts | 241° |
| 2026-05-06 14:22 | 28.79095 | -95.77878 | 35880 ft | 395 kts | 241° |
| 2026-05-06 14:22 | 28.76289 | -95.83251 | 35875 ft | 395 kts | 241° |
| 2026-05-06 14:23 | 28.73934 | -95.87754 | 35882 ft | 395 kts | 240° |
| 2026-05-06 14:23 | 28.71126 | -95.93118 | 35875 ft | 395 kts | 240° |
| 2026-05-06 14:24 | 28.68310 | -95.98490 | 35867 ft | 395 kts | 240° |
| 2026-05-06 14:24 | 28.65493 | -96.03857 | 35867 ft | 395 kts | 240° |
| 2026-05-06 14:25 | 28.62674 | -96.09220 | 35880 ft | 395 kts | 240° |
| 2026-05-06 14:25 | 28.61261 | -96.11905 | 35997 ft | 395 kts | 240° |
| 2026-05-06 14:25 | 28.59851 | -96.14584 | 36277 ft | 394 kts | 240° |
| 2026-05-06 14:26 | 28.58444 | -96.17254 | 36527 ft | 394 kts | 240° |
| 2026-05-06 14:26 | 28.57036 | -96.19925 | 36784 ft | 393 kts | 240° |
| 2026-05-06 14:26 | 28.55630 | -96.22591 | 37042 ft | 393 kts | 240° |
| 2026-05-06 14:26 | 28.54243 | -96.25219 | 37278 ft | 392 kts | 240° |
| 2026-05-06 14:27 | 28.52841 | -96.27873 | 37516 ft | 391 kts | 240° |
| 2026-05-06 14:27 | 28.51440 | -96.30524 | 37720 ft | 390 kts | 240° |
| 2026-05-06 14:27 | 28.50040 | -96.33172 | 37856 ft | 392 kts | 240° |
| 2026-05-06 14:27 | 28.48631 | -96.35835 | 37868 ft | 394 kts | 239° |
| 2026-05-06 14:28 | 28.45819 | -96.41145 | 37855 ft | 392 kts | 239° |
| 2026-05-06 14:28 | 28.43006 | -96.46449 | 37858 ft | 392 kts | 239° |
| 2026-05-06 14:29 | 28.40196 | -96.51742 | 37849 ft | 390 kts | 239° |
| 2026-05-06 14:29 | 28.37392 | -96.57018 | 37859 ft | 391 kts | 239° |
| 2026-05-06 14:30 | 28.34560 | -96.62336 | 37856 ft | 391 kts | 239° |
| 2026-05-06 14:30 | 28.31772 | -96.67567 | 37855 ft | 391 kts | 239° |
| 2026-05-06 14:31 | 28.28959 | -96.72840 | 37855 ft | 391 kts | 239° |
| 2026-05-06 14:31 | 28.26140 | -96.78116 | 37852 ft | 391 kts | 239° |
| 2026-05-06 14:32 | 28.23323 | -96.83382 | 37862 ft | 391 kts | 239° |
| 2026-05-06 14:32 | 28.20506 | -96.88641 | 37862 ft | 390 kts | 239° |
| 2026-05-06 14:33 | 28.17682 | -96.93906 | 37854 ft | 393 kts | 239° |
| 2026-05-06 14:33 | 28.14830 | -96.99219 | 37859 ft | 395 kts | 239° |
| 2026-05-06 14:34 | 28.11975 | -97.04530 | 37859 ft | 394 kts | 239° |
| 2026-05-06 14:34 | 28.09120 | -97.09834 | 37856 ft | 394 kts | 239° |
| 2026-05-06 14:35 | 28.06266 | -97.15132 | 37865 ft | 394 kts | 239° |
| 2026-05-06 14:35 | 28.03408 | -97.20432 | 37842 ft | 395 kts | 239° |
| 2026-05-06 14:36 | 28.00547 | -97.25730 | 37841 ft | 395 kts | 239° |
| 2026-05-06 14:36 | 27.97682 | -97.31028 | 37840 ft | 395 kts | 239° |
| 2026-05-06 14:37 | 27.94819 | -97.36315 | 37851 ft | 395 kts | 239° |
| 2026-05-06 14:37 | 27.91950 | -97.41608 | 37848 ft | 395 kts | 239° |
| 2026-05-06 14:38 | 27.89010 | -97.46830 | 37834 ft | 395 kts | 228° |
| 2026-05-06 14:38 | 27.85179 | -97.51289 | 37844 ft | 396 kts | 230° |
| 2026-05-06 14:39 | 27.81521 | -97.55951 | 37847 ft | 400 kts | 230° |
| 2026-05-06 14:39 | 27.77863 | -97.60661 | 37858 ft | 399 kts | 231° |
| 2026-05-06 14:40 | 27.74179 | -97.65409 | 37859 ft | 399 kts | 230° |
| 2026-05-06 14:40 | 27.70541 | -97.70093 | 37860 ft | 399 kts | 230° |
| 2026-05-06 14:41 | 27.66881 | -97.74802 | 37862 ft | 399 kts | 230° |
| 2026-05-06 14:41 | 27.63219 | -97.79506 | 37853 ft | 399 kts | 230° |
| 2026-05-06 14:42 | 27.59553 | -97.84212 | 37850 ft | 399 kts | 230° |
| 2026-05-06 14:42 | 27.55885 | -97.88915 | 37851 ft | 399 kts | 230° |
| 2026-05-06 14:43 | 27.52219 | -97.93609 | 37859 ft | 399 kts | 230° |
| 2026-05-06 14:43 | 27.48547 | -97.98306 | 37873 ft | 399 kts | 230° |
| 2026-05-06 14:44 | 27.44892 | -98.02976 | 37865 ft | 397 kts | 230° |
| 2026-05-06 14:45 | 27.39401 | -98.09984 | 37853 ft | 398 kts | 230° |
| 2026-05-06 14:45 | 27.35737 | -98.14653 | 37851 ft | 398 kts | 230° |
| 2026-05-06 14:46 | 27.32076 | -98.19313 | 37852 ft | 398 kts | 230° |
| 2026-05-06 14:46 | 27.28416 | -98.23967 | 37839 ft | 397 kts | 230° |
| 2026-05-06 14:47 | 27.24754 | -98.28618 | 37840 ft | 398 kts | 230° |
| 2026-05-06 14:47 | 27.21084 | -98.33275 | 37828 ft | 400 kts | 230° |
| 2026-05-06 14:48 | 27.17377 | -98.37974 | 37854 ft | 402 kts | 230° |
| 2026-05-06 14:48 | 27.13679 | -98.42656 | 37857 ft | 401 kts | 230° |
| 2026-05-06 14:49 | 27.09979 | -98.47336 | 37863 ft | 401 kts | 230° |
| 2026-05-06 14:49 | 27.06274 | -98.52016 | 37859 ft | 401 kts | 230° |
| 2026-05-06 14:50 | 27.02565 | -98.56697 | 37862 ft | 401 kts | 230° |
| 2026-05-06 14:50 | 26.98857 | -98.61371 | 37863 ft | 401 kts | 230° |
| 2026-05-06 14:51 | 26.95152 | -98.66037 | 37846 ft | 401 kts | 230° |
| 2026-05-06 14:51 | 26.91443 | -98.70703 | 37848 ft | 401 kts | 230° |
| 2026-05-06 14:52 | 26.87725 | -98.75375 | 37845 ft | 403 kts | 230° |
| 2026-05-06 14:52 | 26.83986 | -98.80069 | 37838 ft | 403 kts | 230° |
| 2026-05-06 14:53 | 26.80251 | -98.84752 | 37834 ft | 403 kts | 230° |
| 2026-05-06 14:53 | 26.76512 | -98.89435 | 37836 ft | 403 kts | 230° |
| 2026-05-06 14:54 | 26.72774 | -98.94113 | 37837 ft | 404 kts | 230° |
| 2026-05-06 14:54 | 26.69030 | -98.98792 | 37832 ft | 404 kts | 230° |
| 2026-05-06 14:55 | 26.65285 | -99.03469 | 37831 ft | 404 kts | 229° |
| 2026-05-06 14:55 | 26.61567 | -99.08107 | 37836 ft | 404 kts | 229° |
| 2026-05-06 14:56 | 26.57829 | -99.12767 | 37831 ft | 401 kts | 229° |
| 2026-05-06 14:56 | 26.54075 | -99.17416 | 37836 ft | 406 kts | 229° |
| 2026-05-06 14:57 | 26.50267 | -99.22066 | 37839 ft | 406 kts | 229° |
| 2026-05-06 14:57 | 26.46464 | -99.26711 | 37836 ft | 406 kts | 229° |
| 2026-05-06 14:58 | 26.42655 | -99.31361 | 37839 ft | 406 kts | 229° |
| 2026-05-06 14:58 | 26.38849 | -99.36002 | 37838 ft | 406 kts | 229° |
| 2026-05-06 14:59 | 26.35038 | -99.40644 | 37845 ft | 406 kts | 229° |
| 2026-05-06 14:59 | 26.31224 | -99.45284 | 37849 ft | 406 kts | 229° |
| 2026-05-06 15:00 | 26.27421 | -99.49906 | 37844 ft | 404 kts | 229° |
| 2026-05-06 15:00 | 26.23632 | -99.54508 | 37832 ft | 404 kts | 229° |
| 2026-05-06 15:01 | 26.19813 | -99.59139 | 37859 ft | 408 kts | 229° |
| 2026-05-06 15:01 | 26.15979 | -99.63785 | 37854 ft | 407 kts | 229° |
| 2026-05-06 15:02 | 26.12151 | -99.68418 | 37853 ft | 407 kts | 229° |
| 2026-05-06 15:02 | 26.08317 | -99.73055 | 37860 ft | 407 kts | 229° |
| 2026-05-06 15:03 | 26.04479 | -99.77690 | 37862 ft | 407 kts | 229° |
| 2026-05-06 15:03 | 26.00645 | -99.82317 | 37867 ft | 407 kts | 229° |
| 2026-05-06 15:04 | 25.96808 | -99.86942 | 37863 ft | 406 kts | 229° |
| 2026-05-06 15:04 | 25.92993 | -99.91535 | 37880 ft | 405 kts | 229° |
| 2026-05-06 15:05 | 25.89192 | -99.96108 | 37888 ft | 407 kts | 229° |
| 2026-05-06 15:05 | 25.85340 | -100.00737 | 37900 ft | 408 kts | 229° |
| 2026-05-06 15:06 | 25.81493 | -100.05356 | 37904 ft | 408 kts | 229° |
| 2026-05-06 15:06 | 25.77675 | -100.09992 | 37899 ft | 407 kts | 234° |
| 2026-05-06 15:07 | 25.74754 | -100.15326 | 37880 ft | 406 kts | 239° |
| 2026-05-06 15:07 | 25.71886 | -100.20723 | 37906 ft | 406 kts | 239° |
| 2026-05-06 15:08 | 25.69498 | -100.25265 | 37903 ft | 407 kts | 239° |
| 2026-05-06 15:08 | 25.66664 | -100.30660 | 37909 ft | 408 kts | 239° |
| 2026-05-06 15:09 | 25.63816 | -100.36078 | 37935 ft | 408 kts | 239° |
| 2026-05-06 15:09 | 25.60962 | -100.41500 | 37946 ft | 408 kts | 239° |
| 2026-05-06 15:10 | 25.58105 | -100.46922 | 37942 ft | 407 kts | 239° |
| 2026-05-06 15:10 | 25.55241 | -100.52349 | 37954 ft | 411 kts | 239° |
| 2026-05-06 15:11 | 25.52355 | -100.57812 | 37984 ft | 411 kts | 239° |
| 2026-05-06 15:11 | 25.49469 | -100.63270 | 38081 ft | 412 kts | 239° |
| 2026-05-06 15:12 | 25.46579 | -100.68729 | 38076 ft | 410 kts | 239° |
| 2026-05-06 15:12 | 25.43688 | -100.74184 | 38079 ft | 411 kts | 239° |
| 2026-05-06 15:13 | 25.40799 | -100.79626 | 38099 ft | 411 kts | 239° |
| 2026-05-06 15:13 | 25.37901 | -100.85079 | 38101 ft | 411 kts | 239° |
| 2026-05-06 15:14 | 25.35006 | -100.90522 | 38075 ft | 409 kts | 239° |
| 2026-05-06 15:14 | 25.32112 | -100.95955 | 38069 ft | 411 kts | 239° |
| 2026-05-06 15:15 | 25.29218 | -101.01382 | 38017 ft | 410 kts | 239° |
| 2026-05-06 15:15 | 25.26339 | -101.06774 | 38014 ft | 411 kts | 239° |
| 2026-05-06 15:16 | 25.23437 | -101.12205 | 38004 ft | 410 kts | 239° |
| 2026-05-06 15:16 | 25.20530 | -101.17638 | 37996 ft | 412 kts | 239° |
| 2026-05-06 15:17 | 25.17604 | -101.23100 | 38014 ft | 413 kts | 239° |
| 2026-05-06 15:17 | 25.14681 | -101.28550 | 38017 ft | 413 kts | 239° |
| 2026-05-06 15:18 | 25.11751 | -101.34007 | 38010 ft | 412 kts | 239° |
| 2026-05-06 15:18 | 25.08826 | -101.39448 | 38012 ft | 412 kts | 239° |
| 2026-05-06 15:19 | 25.05897 | -101.44890 | 38015 ft | 413 kts | 239° |
| 2026-05-06 15:19 | 25.02966 | -101.50329 | 38010 ft | 412 kts | 239° |
| 2026-05-06 15:20 | 25.00036 | -101.55761 | 38014 ft | 413 kts | 239° |
| 2026-05-06 15:20 | 24.97103 | -101.61193 | 38012 ft | 413 kts | 239° |
| 2026-05-06 15:21 | 24.94165 | -101.66627 | 38004 ft | 413 kts | 238° |
| 2026-05-06 15:21 | 24.91230 | -101.72050 | 38010 ft | 411 kts | 238° |
| 2026-05-06 15:22 | 24.88310 | -101.77437 | 38000 ft | 410 kts | 238° |
| 2026-05-06 15:22 | 24.85380 | -101.82837 | 37982 ft | 411 kts | 238° |
| 2026-05-06 15:23 | 24.82439 | -101.88252 | 38015 ft | 413 kts | 238° |
| 2026-05-06 15:23 | 24.79489 | -101.93677 | 37999 ft | 413 kts | 238° |
| 2026-05-06 15:24 | 24.76542 | -101.99090 | 38005 ft | 413 kts | 238° |
| 2026-05-06 15:24 | 24.73589 | -102.04508 | 38023 ft | 413 kts | 238° |
| 2026-05-06 15:25 | 24.70642 | -102.09909 | 38000 ft | 410 kts | 238° |
| 2026-05-06 15:25 | 24.67703 | -102.15290 | 38008 ft | 411 kts | 238° |
| 2026-05-06 15:26 | 24.64760 | -102.20673 | 38012 ft | 411 kts | 238° |
| 2026-05-06 15:26 | 24.61819 | -102.26045 | 38011 ft | 411 kts | 238° |
| 2026-05-06 15:27 | 24.58872 | -102.31422 | 38006 ft | 411 kts | 238° |
| 2026-05-06 15:27 | 24.55923 | -102.36795 | 38003 ft | 411 kts | 238° |
| 2026-05-06 15:28 | 24.52970 | -102.42171 | 38015 ft | 411 kts | 238° |
| 2026-05-06 15:28 | 24.50028 | -102.47522 | 38006 ft | 409 kts | 238° |
| 2026-05-06 15:29 | 24.47084 | -102.52869 | 38004 ft | 410 kts | 238° |
| 2026-05-06 15:29 | 24.44129 | -102.58230 | 38001 ft | 410 kts | 238° |
| 2026-05-06 15:30 | 24.41171 | -102.63591 | 38001 ft | 410 kts | 238° |
| 2026-05-06 15:30 | 24.38218 | -102.68937 | 38004 ft | 410 kts | 238° |
| 2026-05-06 15:31 | 24.35256 | -102.74294 | 38003 ft | 410 kts | 238° |
| 2026-05-06 15:31 | 24.32298 | -102.79639 | 38015 ft | 409 kts | 238° |
| 2026-05-06 15:32 | 24.27883 | -102.87602 | 38006 ft | 408 kts | 238° |
| 2026-05-06 15:32 | 24.24939 | -102.92905 | 38008 ft | 407 kts | 238° |
| 2026-05-06 15:33 | 24.21991 | -102.98212 | 38007 ft | 407 kts | 238° |
| 2026-05-06 15:33 | 24.19044 | -103.03511 | 38021 ft | 408 kts | 238° |
| 2026-05-06 15:34 | 24.16094 | -103.08810 | 38024 ft | 407 kts | 238° |
| 2026-05-06 15:34 | 24.13161 | -103.14073 | 38047 ft | 408 kts | 238° |
| 2026-05-06 15:35 | 24.10205 | -103.19371 | 38018 ft | 404 kts | 238° |
| 2026-05-06 15:35 | 24.07273 | -103.24622 | 38026 ft | 404 kts | 238° |
| 2026-05-06 15:36 | 24.03962 | -103.29559 | 38012 ft | 404 kts | 220° |
| 2026-05-06 15:36 | 23.99189 | -103.32857 | 38014 ft | 409 kts | 213° |
| 2026-05-06 15:37 | 23.94278 | -103.35907 | 38034 ft | 409 kts | 212° |
| 2026-05-06 15:37 | 23.89290 | -103.38921 | 38038 ft | 409 kts | 212° |
| 2026-05-06 15:38 | 23.84296 | -103.41914 | 38041 ft | 410 kts | 212° |
| 2026-05-06 15:38 | 23.79292 | -103.44907 | 38036 ft | 410 kts | 212° |
| 2026-05-06 15:39 | 23.74269 | -103.47909 | 38043 ft | 414 kts | 211° |
| 2026-05-06 15:39 | 23.69226 | -103.50921 | 38044 ft | 413 kts | 211° |
| 2026-05-06 15:40 | 23.64180 | -103.53932 | 38056 ft | 413 kts | 211° |
| 2026-05-06 15:40 | 23.59132 | -103.56941 | 38056 ft | 413 kts | 211° |
| 2026-05-06 15:41 | 23.54089 | -103.59945 | 38055 ft | 413 kts | 211° |
| 2026-05-06 15:41 | 23.49047 | -103.62947 | 38060 ft | 413 kts | 211° |
| 2026-05-06 15:42 | 23.44002 | -103.65950 | 38047 ft | 415 kts | 211° |
| 2026-05-06 15:42 | 23.38920 | -103.68972 | 38071 ft | 417 kts | 211° |
| 2026-05-06 15:43 | 23.33831 | -103.71995 | 38067 ft | 417 kts | 211° |
| 2026-05-06 15:43 | 23.28751 | -103.75011 | 38073 ft | 417 kts | 211° |
| 2026-05-06 15:44 | 23.23656 | -103.78033 | 38074 ft | 417 kts | 211° |
| 2026-05-06 15:44 | 23.18567 | -103.81049 | 38072 ft | 417 kts | 211° |
| 2026-05-06 15:45 | 23.13471 | -103.84067 | 38076 ft | 417 kts | 211° |
| 2026-05-06 15:45 | 23.08349 | -103.87081 | 38069 ft | 421 kts | 211° |
| 2026-05-06 15:46 | 23.03214 | -103.90119 | 38080 ft | 421 kts | 211° |
| 2026-05-06 15:46 | 22.98066 | -103.93162 | 38057 ft | 421 kts | 210° |
| 2026-05-06 15:47 | 22.92911 | -103.96205 | 38049 ft | 421 kts | 211° |
| 2026-05-06 15:47 | 22.87797 | -103.99223 | 38058 ft | 421 kts | 211° |
| 2026-05-06 15:48 | 22.82623 | -104.02273 | 38059 ft | 421 kts | 211° |
| 2026-05-06 15:48 | 22.77497 | -104.05291 | 38047 ft | 423 kts | 210° |
| 2026-05-06 15:49 | 22.72313 | -104.08336 | 37740 ft | 423 kts | 210° |
| 2026-05-06 15:49 | 22.69722 | -104.09858 | 37500 ft | 423 kts | 210° |
| 2026-05-06 15:49 | 22.67137 | -104.11374 | 37265 ft | 423 kts | 210° |
| 2026-05-06 15:50 | 22.64545 | -104.12895 | 37033 ft | 423 kts | 210° |
| 2026-05-06 15:50 | 22.61959 | -104.14412 | 36809 ft | 424 kts | 210° |
| 2026-05-06 15:50 | 22.59360 | -104.15934 | 36576 ft | 424 kts | 210° |
| 2026-05-06 15:50 | 22.56765 | -104.17455 | 36350 ft | 425 kts | 210° |
| 2026-05-06 15:51 | 22.54163 | -104.18978 | 36133 ft | 425 kts | 210° |
| 2026-05-06 15:51 | 22.51561 | -104.20501 | 35919 ft | 426 kts | 210° |
| 2026-05-06 15:51 | 22.48951 | -104.22029 | 35694 ft | 426 kts | 210° |
| 2026-05-06 15:51 | 22.46345 | -104.23553 | 35454 ft | 427 kts | 210° |
| 2026-05-06 15:52 | 22.43722 | -104.25086 | 35230 ft | 429 kts | 210° |
| 2026-05-06 15:52 | 22.41103 | -104.26617 | 35021 ft | 430 kts | 210° |
| 2026-05-06 15:52 | 22.38472 | -104.28155 | 34803 ft | 430 kts | 210° |
| 2026-05-06 15:52 | 22.35840 | -104.29692 | 34593 ft | 431 kts | 210° |
| 2026-05-06 15:53 | 22.33206 | -104.31229 | 34383 ft | 431 kts | 210° |
| 2026-05-06 15:53 | 22.30561 | -104.32773 | 34154 ft | 432 kts | 210° |
| 2026-05-06 15:53 | 22.27919 | -104.34314 | 33963 ft | 432 kts | 210° |
| 2026-05-06 15:53 | 22.25269 | -104.35858 | 33708 ft | 433 kts | 210° |
| 2026-05-06 15:54 | 22.23513 | -104.36882 | 33548 ft | 432 kts | 210° |
| 2026-05-06 15:54 | 22.20884 | -104.38413 | 32856 ft | 430 kts | 210° |
| 2026-05-06 15:54 | 22.17364 | -104.40462 | 31357 ft | 441 kts | 210° |
| 2026-05-06 15:54 | 22.14647 | -104.42044 | 30409 ft | 445 kts | 209° |
| 2026-05-06 15:55 | 22.12809 | -104.43113 | 29864 ft | 445 kts | 209° |
| 2026-05-06 15:55 | 22.10090 | -104.44695 | 28976 ft | 444 kts | 209° |
| 2026-05-06 15:55 | 22.07379 | -104.46271 | 28222 ft | 441 kts | 209° |
| 2026-05-06 15:55 | 22.04695 | -104.47831 | 27568 ft | 437 kts | 209° |
| 2026-05-06 15:56 | 22.02033 | -104.49378 | 26911 ft | 433 kts | 209° |
| 2026-05-06 15:56 | 21.99382 | -104.50918 | 26246 ft | 431 kts | 209° |
| 2026-05-06 15:56 | 21.96761 | -104.52437 | 25613 ft | 428 kts | 209° |
| 2026-05-06 15:56 | 21.94143 | -104.53956 | 24961 ft | 426 kts | 209° |
| 2026-05-06 15:57 | 21.91537 | -104.55467 | 24302 ft | 425 kts | 209° |
| 2026-05-06 15:57 | 21.88940 | -104.56972 | 23681 ft | 423 kts | 209° |
| 2026-05-06 15:57 | 21.86350 | -104.58472 | 22940 ft | 422 kts | 209° |
| 2026-05-06 15:57 | 21.83772 | -104.59964 | 22251 ft | 419 kts | 208° |
| 2026-05-06 15:58 | 21.81215 | -104.61445 | 21662 ft | 415 kts | 208° |
| 2026-05-06 15:58 | 21.78683 | -104.62910 | 21013 ft | 412 kts | 208° |
| 2026-05-06 15:58 | 21.76162 | -104.64368 | 20378 ft | 410 kts | 208° |
| 2026-05-06 15:58 | 21.73674 | -104.65807 | 19967 ft | 402 kts | 208° |
| 2026-05-06 15:59 | 21.71203 | -104.67236 | 19691 ft | 404 kts | 208° |
| 2026-05-06 15:59 | 21.68730 | -104.68665 | 19475 ft | 403 kts | 208° |
| 2026-05-06 15:59 | 21.66267 | -104.70087 | 19254 ft | 402 kts | 207° |
| 2026-05-06 15:59 | 21.63810 | -104.71506 | 19039 ft | 400 kts | 207° |
| 2026-05-06 16:00 | 21.61364 | -104.72917 | 18822 ft | 399 kts | 207° |
| 2026-05-06 16:00 | 21.58929 | -104.74322 | 18611 ft | 397 kts | 207° |
| 2026-05-06 16:00 | 21.56499 | -104.75723 | 18392 ft | 395 kts | 207° |
| 2026-05-06 16:00 | 21.54083 | -104.77116 | 18154 ft | 394 kts | 207° |
| 2026-05-06 16:01 | 21.51678 | -104.78501 | 17934 ft | 393 kts | 207° |
| 2026-05-06 16:01 | 21.49276 | -104.79885 | 17708 ft | 391 kts | 207° |
| 2026-05-06 16:01 | 21.46878 | -104.81266 | 17484 ft | 390 kts | 207° |
| 2026-05-06 16:01 | 21.44522 | -104.82622 | 17260 ft | 389 kts | 207° |
| 2026-05-06 16:02 | 21.42126 | -104.83901 | 16800 ft | 383 kts | 199° |
| 2026-05-06 16:02 | 21.39586 | -104.84743 | 16301 ft | 380 kts | 197° |
| 2026-05-06 16:02 | 21.37076 | -104.85596 | 15804 ft | 376 kts | 197° |
| 2026-05-06 16:02 | 21.34586 | -104.86443 | 15281 ft | 374 kts | 197° |
| 2026-05-06 16:03 | 21.32103 | -104.87287 | 14742 ft | 373 kts | 197° |
| 2026-05-06 16:03 | 21.29642 | -104.88124 | 14195 ft | 371 kts | 197° |
| 2026-05-06 16:03 | 21.27183 | -104.88960 | 13622 ft | 370 kts | 197° |
| 2026-05-06 16:03 | 21.24732 | -104.89793 | 13049 ft | 369 kts | 197° |
| 2026-05-06 16:04 | 21.22290 | -104.90623 | 12501 ft | 367 kts | 198° |
| 2026-05-06 16:04 | 21.19870 | -104.91444 | 11959 ft | 360 kts | 198° |
| 2026-05-06 16:04 | 21.17513 | -104.92244 | 11455 ft | 352 kts | 198° |
| 2026-05-06 16:04 | 21.15196 | -104.93031 | 10933 ft | 346 kts | 199° |
| 2026-05-06 16:05 | 21.12914 | -104.93804 | 10424 ft | 341 kts | 199° |
| 2026-05-06 16:05 | 21.10675 | -104.94563 | 9915 ft | 335 kts | 199° |
| 2026-05-06 16:05 | 21.08467 | -104.95311 | 9403 ft | 330 kts | 199° |
| 2026-05-06 16:05 | 21.06296 | -104.96047 | 8955 ft | 324 kts | 199° |
| 2026-05-06 16:06 | 21.04160 | -104.96770 | 8475 ft | 320 kts | 199° |
| 2026-05-06 16:06 | 21.02051 | -104.97486 | 8004 ft | 317 kts | 198° |
| 2026-05-06 16:06 | 20.99951 | -104.98197 | 7538 ft | 314 kts | 198° |
| 2026-05-06 16:06 | 20.97893 | -104.98893 | 7088 ft | 306 kts | 199° |
| 2026-05-06 16:07 | 20.95899 | -104.99567 | 6732 ft | 296 kts | 199° |
| 2026-05-06 16:07 | 20.93969 | -105.00220 | 6393 ft | 287 kts | 198° |
| 2026-05-06 16:07 | 20.92092 | -105.00855 | 6042 ft | 279 kts | 198° |
| 2026-05-06 16:07 | 20.90274 | -105.01470 | 5723 ft | 269 kts | 198° |
| 2026-05-06 16:08 | 20.88543 | -105.02148 | 5358 ft | 262 kts | 211° |
| 2026-05-06 16:08 | 20.87198 | -105.03424 | 4980 ft | 256 kts | 227° |
| 2026-05-06 16:08 | 20.86022 | -105.04770 | 4689 ft | 241 kts | 226° |
| 2026-05-06 16:08 | 20.84900 | -105.06043 | 4393 ft | 230 kts | 226° |
| 2026-05-06 16:09 | 20.83827 | -105.07269 | 4115 ft | 224 kts | 226° |
| 2026-05-06 16:09 | 20.82775 | -105.08472 | 3874 ft | 219 kts | 227° |
| 2026-05-06 16:09 | 20.81750 | -105.09649 | 3645 ft | 212 kts | 227° |
| 2026-05-06 16:09 | 20.80842 | -105.10690 | 3415 ft | 202 kts | 227° |
| 2026-05-06 16:10 | 20.79904 | -105.11766 | 3147 ft | 194 kts | 228° |
| 2026-05-06 16:10 | 20.79007 | -105.12795 | 2878 ft | 185 kts | 227° |
| 2026-05-06 16:10 | 20.78139 | -105.13791 | 2629 ft | 182 kts | 227° |
| 2026-05-06 16:10 | 20.77276 | -105.14781 | 2378 ft | 182 kts | 227° |
| 2026-05-06 16:11 | 20.76415 | -105.15770 | 2137 ft | 181 kts | 227° |
| 2026-05-06 16:11 | 20.75582 | -105.16725 | 1914 ft | 172 kts | 227° |
| 2026-05-06 16:11 | 20.74778 | -105.17649 | 1695 ft | 168 kts | 228° |
| 2026-05-06 16:11 | 20.73983 | -105.18561 | 1463 ft | 167 kts | 228° |
| 2026-05-06 16:12 | 20.73206 | -105.19454 | 1283 ft | 157 kts | 228° |
| 2026-05-06 16:12 | 20.72478 | -105.20289 | 1079 ft | 151 kts | 228° |
| 2026-05-06 16:12 | 20.71773 | -105.21100 | 857 ft | 148 kts | 227° |
| 2026-05-06 16:12 | 20.71074 | -105.21903 | 660 ft | 146 kts | 227° |
| 2026-05-06 16:13 | 20.70389 | -105.22689 | 458 ft | 143 kts | 227° |
| 2026-05-06 16:13 | 20.69725 | -105.23442 | 293 ft | 138 kts | 229° |
| 2026-05-06 16:13 | 20.69078 | -105.24194 | 104 ft | 137 kts | 227° |
| 2026-05-06 16:13 | 20.68457 | -105.24907 | 30 ft | 118 kts | 227° |
| 2026-05-06 16:14 | 20.68011 | -105.25418 | 33 ft | 70 kts | 226° |
| 2026-05-06 16:14 | 20.67771 | -105.25621 | 31 ft | 25 kts | 199° |
| 2026-05-06 16:14 | 20.67648 | -105.25664 | 31 ft | 9 kts | 197° |
| 2026-05-06 16:14 | 20.67607 | -105.25631 | 31 ft | 9 kts | 83° |
| 2026-05-06 16:15 | 20.67649 | -105.25572 | 31 ft | 11 kts | 48° |
| 2026-05-06 16:15 | 20.67708 | -105.25502 | 32 ft | 14 kts | 48° |
| 2026-05-06 16:15 | 20.67781 | -105.25422 | 32 ft | 16 kts | 45° |
| 2026-05-06 16:15 | 20.67864 | -105.25327 | 32 ft | 19 kts | 49° |
| 2026-05-06 16:16 | 20.67951 | -105.25223 | 32 ft | 19 kts | 47° |
| 2026-05-06 16:16 | 20.68048 | -105.25114 | 31 ft | 22 kts | 46° |
| 2026-05-06 16:16 | 20.68088 | -105.25041 | 31 ft | 8 kts | 108° |
| 2026-05-06 16:16 | 20.68045 | -105.24992 | 31 ft | 10 kts | 137° |
| 2026-05-06 16:17 | 20.67986 | -105.24933 | 31 ft | 10 kts | 130° |
| 2026-05-06 16:17 | 20.67998 | -105.24871 | 31 ft | 10 kts | 61° |
| 2026-05-06 16:17 | 20.67969 | -105.24808 | 31 ft | 11 kts | 136° |
| 2026-05-06 16:17 | 20.67916 | -105.24749 | 31 ft | 6 kts | 104° |
| 2026-05-06 16:18 | 20.67933 | -105.24716 | 31 ft | 6 kts | 46° |
| 2026-05-06 16:18 | 20.67948 | -105.24700 | 31 ft | 0 kts | 47° |